sensor_id;sensor_type;location;lat;lon;timestamp;temperature;humidity
22145;DHT22;11238;48.730;11.566;2022-08-19T00:02:25;19.80;99.90
22145;DHT22;11238;48.730;11.566;2022-08-19T00:04:51;19.80;99.90
22145;DHT22;11238;48.730;11.566;2022-08-19T00:07:21;19.70;99.90
22145;DHT22;11238;48.730;11.566;2022-08-19T00:09:47;19.90;99.90
22145;DHT22;11238;48.730;11.566;2022-08-19T00:12:12;19.90;99.90
22145;DHT22;11238;48.730;11.566;2022-08-19T00:14:39;19.90;99.90
22145;DHT22;11238;48.730;11.566;2022-08-19T00:17:07;19.90;99.90
22145;DHT22;11238;48.730;11.566;2022-08-19T00:19:34;19.90;99.90
22145;DHT22;11238;48.730;11.566;2022-08-19T00:22:01;20.00;99.90
22145;DHT22;11238;48.730;11.566;2022-08-19T00:24:28;19.90;99.90
22145;DHT22;11238;48.730;11.566;2022-08-19T00:26:55;20.00;99.90
22145;DHT22;11238;48.730;11.566;2022-08-19T00:29:23;20.00;99.90
22145;DHT22;11238;48.730;11.566;2022-08-19T00:31:50;19.90;99.90
22145;DHT22;11238;48.730;11.566;2022-08-19T00:34:19;19.80;99.90
22145;DHT22;11238;48.730;11.566;2022-08-19T00:36:45;20.00;99.90
22145;DHT22;11238;48.730;11.566;2022-08-19T00:39:12;20.10;99.90
22145;DHT22;11238;48.730;11.566;2022-08-19T00:41:38;20.10;99.90
22145;DHT22;11238;48.730;11.566;2022-08-19T00:44:07;20.10;99.90
22145;DHT22;11238;48.730;11.566;2022-08-19T00:46:37;20.20;99.90
22145;DHT22;11238;48.730;11.566;2022-08-19T00:49:09;20.20;99.90
22145;DHT22;11238;48.730;11.566;2022-08-19T00:51:35;20.20;99.90
22145;DHT22;11238;48.730;11.566;2022-08-19T00:54:03;20.10;99.90
22145;DHT22;11238;48.730;11.566;2022-08-19T00:56:29;20.10;99.90
22145;DHT22;11238;48.730;11.566;2022-08-19T00:58:56;20.00;99.90
22145;DHT22;11238;48.730;11.566;2022-08-19T01:01:23;20.00;99.90
22145;DHT22;11238;48.730;11.566;2022-08-19T01:03:49;19.90;99.90
22145;DHT22;11238;48.730;11.566;2022-08-19T01:06:16;19.80;99.90
22145;DHT22;11238;48.730;11.566;2022-08-19T01:08:42;19.70;99.90
22145;DHT22;11238;48.730;11.566;2022-08-19T01:11:08;19.70;99.90
22145;DHT22;11238;48.730;11.566;2022-08-19T01:13:36;19.80;99.90
22145;DHT22;11238;48.730;11.566;2022-08-19T01:16:05;19.80;99.90
22145;DHT22;11238;48.730;11.566;2022-08-19T01:18:35;19.90;99.90
22145;DHT22;11238;48.730;11.566;2022-08-19T01:21:09;19.90;99.90
22145;DHT22;11238;48.730;11.566;2022-08-19T01:23:36;20.00;99.90
22145;DHT22;11238;48.730;11.566;2022-08-19T01:26:14;20.00;99.90
22145;DHT22;11238;48.730;11.566;2022-08-19T01:28:42;20.00;99.90
22145;DHT22;11238;48.730;11.566;2022-08-19T01:31:17;20.10;99.90
22145;DHT22;11238;48.730;11.566;2022-08-19T01:33:44;20.10;99.90
22145;DHT22;11238;48.730;11.566;2022-08-19T01:36:14;20.00;99.90
22145;DHT22;11238;48.730;11.566;2022-08-19T01:38:42;20.00;99.90
22145;DHT22;11238;48.730;11.566;2022-08-19T01:41:11;20.00;99.90
22145;DHT22;11238;48.730;11.566;2022-08-19T01:43:37;19.90;99.90
22145;DHT22;11238;48.730;11.566;2022-08-19T01:46:03;19.90;99.90
22145;DHT22;11238;48.730;11.566;2022-08-19T01:48:38;19.90;99.90
22145;DHT22;11238;48.730;11.566;2022-08-19T01:51:06;19.90;99.90
22145;DHT22;11238;48.730;11.566;2022-08-19T01:53:31;19.80;99.90
22145;DHT22;11238;48.730;11.566;2022-08-19T01:55:58;19.80;99.90
22145;DHT22;11238;48.730;11.566;2022-08-19T01:58:29;19.80;99.90
22145;DHT22;11238;48.730;11.566;2022-08-19T02:00:57;19.80;99.90
22145;DHT22;11238;48.730;11.566;2022-08-19T02:03:24;19.70;99.90
22145;DHT22;11238;48.730;11.566;2022-08-19T02:05:59;19.70;99.90
22145;DHT22;11238;48.730;11.566;2022-08-19T02:08:26;19.80;99.90
22145;DHT22;11238;48.730;11.566;2022-08-19T02:10:52;19.70;99.90
22145;DHT22;11238;48.730;11.566;2022-08-19T02:13:18;19.70;99.90
22145;DHT22;11238;48.730;11.566;2022-08-19T02:15:44;19.70;99.90
22145;DHT22;11238;48.730;11.566;2022-08-19T02:18:10;19.70;99.90
22145;DHT22;11238;48.730;11.566;2022-08-19T02:20:38;19.80;99.90
22145;DHT22;11238;48.730;11.566;2022-08-19T02:23:04;19.70;99.90
22145;DHT22;11238;48.730;11.566;2022-08-19T02:25:30;19.70;99.90
22145;DHT22;11238;48.730;11.566;2022-08-19T02:27:56;19.70;99.90
22145;DHT22;11238;48.730;11.566;2022-08-19T02:30:22;19.60;99.90
22145;DHT22;11238;48.730;11.566;2022-08-19T02:32:48;19.60;99.90
22145;DHT22;11238;48.730;11.566;2022-08-19T02:35:14;19.60;99.90
22145;DHT22;11238;48.730;11.566;2022-08-19T02:37:41;19.60;99.90
22145;DHT22;11238;48.730;11.566;2022-08-19T02:40:28;19.60;99.90
22145;DHT22;11238;48.730;11.566;2022-08-19T02:42:53;19.70;99.90
22145;DHT22;11238;48.730;11.566;2022-08-19T02:45:19;19.70;99.90
22145;DHT22;11238;48.730;11.566;2022-08-19T02:47:45;19.60;99.90
22145;DHT22;11238;48.730;11.566;2022-08-19T02:50:11;19.80;99.90
22145;DHT22;11238;48.730;11.566;2022-08-19T02:52:38;19.80;99.90
22145;DHT22;11238;48.730;11.566;2022-08-19T02:55:05;19.90;99.90
22145;DHT22;11238;48.730;11.566;2022-08-19T02:57:31;20.00;99.90
22145;DHT22;11238;48.730;11.566;2022-08-19T02:59:57;19.80;99.90
22145;DHT22;11238;48.730;11.566;2022-08-19T03:02:23;19.80;99.90
22145;DHT22;11238;48.730;11.566;2022-08-19T03:04:49;19.70;99.90
22145;DHT22;11238;48.730;11.566;2022-08-19T03:07:17;19.60;99.90
22145;DHT22;11238;48.730;11.566;2022-08-19T03:09:44;19.60;99.90
22145;DHT22;11238;48.730;11.566;2022-08-19T03:12:10;19.60;99.90
22145;DHT22;11238;48.730;11.566;2022-08-19T03:14:36;19.60;99.90
22145;DHT22;11238;48.730;11.566;2022-08-19T03:17:04;19.60;99.90
22145;DHT22;11238;48.730;11.566;2022-08-19T03:19:30;19.60;99.90
22145;DHT22;11238;48.730;11.566;2022-08-19T03:21:57;19.60;99.90
22145;DHT22;11238;48.730;11.566;2022-08-19T03:24:23;19.60;99.90
22145;DHT22;11238;48.730;11.566;2022-08-19T03:26:52;19.60;99.90
22145;DHT22;11238;48.730;11.566;2022-08-19T03:29:19;19.50;99.90
22145;DHT22;11238;48.730;11.566;2022-08-19T03:31:45;19.40;99.90
22145;DHT22;11238;48.730;11.566;2022-08-19T03:34:13;19.40;99.90
22145;DHT22;11238;48.730;11.566;2022-08-19T03:36:40;19.50;99.90
22145;DHT22;11238;48.730;11.566;2022-08-19T03:39:06;19.50;99.90
22145;DHT22;11238;48.730;11.566;2022-08-19T03:41:39;19.40;99.90
22145;DHT22;11238;48.730;11.566;2022-08-19T03:44:05;19.50;99.90
22145;DHT22;11238;48.730;11.566;2022-08-19T03:46:34;19.60;99.90
22145;DHT22;11238;48.730;11.566;2022-08-19T03:49:02;19.50;99.90
22145;DHT22;11238;48.730;11.566;2022-08-19T03:51:38;19.50;99.90
22145;DHT22;11238;48.730;11.566;2022-08-19T03:54:08;19.50;99.90
22145;DHT22;11238;48.730;11.566;2022-08-19T03:56:37;19.50;99.90
22145;DHT22;11238;48.730;11.566;2022-08-19T03:59:06;19.50;99.90
22145;DHT22;11238;48.730;11.566;2022-08-19T04:01:32;19.50;99.90
22145;DHT22;11238;48.730;11.566;2022-08-19T04:03:59;19.50;99.90
22145;DHT22;11238;48.730;11.566;2022-08-19T04:06:30;19.60;99.90
22145;DHT22;11238;48.730;11.566;2022-08-19T04:08:58;19.60;99.90
22145;DHT22;11238;48.730;11.566;2022-08-19T04:11:27;19.60;99.90
22145;DHT22;11238;48.730;11.566;2022-08-19T04:13:54;19.60;99.90
22145;DHT22;11238;48.730;11.566;2022-08-19T04:16:22;19.60;99.90
22145;DHT22;11238;48.730;11.566;2022-08-19T04:18:49;19.60;99.90
22145;DHT22;11238;48.730;11.566;2022-08-19T04:21:20;19.60;99.90
22145;DHT22;11238;48.730;11.566;2022-08-19T04:23:47;19.50;99.90
22145;DHT22;11238;48.730;11.566;2022-08-19T04:26:18;19.40;99.90
22145;DHT22;11238;48.730;11.566;2022-08-19T04:28:45;19.40;99.90
22145;DHT22;11238;48.730;11.566;2022-08-19T04:31:14;19.50;99.90
22145;DHT22;11238;48.730;11.566;2022-08-19T04:33:40;19.50;99.90
22145;DHT22;11238;48.730;11.566;2022-08-19T04:36:06;19.40;99.90
22145;DHT22;11238;48.730;11.566;2022-08-19T04:38:33;19.40;99.90
22145;DHT22;11238;48.730;11.566;2022-08-19T04:40:59;19.40;99.90
22145;DHT22;11238;48.730;11.566;2022-08-19T04:43:45;19.40;99.90
22145;DHT22;11238;48.730;11.566;2022-08-19T04:46:14;19.50;99.90
22145;DHT22;11238;48.730;11.566;2022-08-19T04:48:40;19.60;99.90
22145;DHT22;11238;48.730;11.566;2022-08-19T04:51:10;19.60;99.90
22145;DHT22;11238;48.730;11.566;2022-08-19T04:53:37;19.60;99.90
22145;DHT22;11238;48.730;11.566;2022-08-19T04:56:09;19.50;99.90
22145;DHT22;11238;48.730;11.566;2022-08-19T04:58:37;19.50;99.90
22145;DHT22;11238;48.730;11.566;2022-08-19T05:01:03;19.60;99.90
22145;DHT22;11238;48.730;11.566;2022-08-19T05:03:30;19.60;99.90
22145;DHT22;11238;48.730;11.566;2022-08-19T05:06:05;19.60;99.90
22145;DHT22;11238;48.730;11.566;2022-08-19T05:08:34;19.70;99.90
22145;DHT22;11238;48.730;11.566;2022-08-19T05:11:06;19.60;99.90
22145;DHT22;11238;48.730;11.566;2022-08-19T05:13:32;19.60;99.90
22145;DHT22;11238;48.730;11.566;2022-08-19T05:15:59;19.60;99.90
22145;DHT22;11238;48.730;11.566;2022-08-19T05:18:25;19.70;99.90
22145;DHT22;11238;48.730;11.566;2022-08-19T05:21:11;19.70;99.90
22145;DHT22;11238;48.730;11.566;2022-08-19T05:23:57;19.70;99.90
22145;DHT22;11238;48.730;11.566;2022-08-19T05:26:23;19.70;99.90
22145;DHT22;11238;48.730;11.566;2022-08-19T05:28:52;19.70;99.90
22145;DHT22;11238;48.730;11.566;2022-08-19T05:31:18;19.70;99.90
22145;DHT22;11238;48.730;11.566;2022-08-19T05:33:45;19.70;99.90
22145;DHT22;11238;48.730;11.566;2022-08-19T05:36:11;19.80;99.90
22145;DHT22;11238;48.730;11.566;2022-08-19T05:38:37;19.90;99.90
22145;DHT22;11238;48.730;11.566;2022-08-19T05:41:09;19.80;99.90
22145;DHT22;11238;48.730;11.566;2022-08-19T05:43:35;19.80;99.90
22145;DHT22;11238;48.730;11.566;2022-08-19T05:46:04;19.90;99.90
22145;DHT22;11238;48.730;11.566;2022-08-19T05:48:31;19.90;99.90
22145;DHT22;11238;48.730;11.566;2022-08-19T05:51:02;20.10;99.90
22145;DHT22;11238;48.730;11.566;2022-08-19T05:53:28;20.20;99.90
22145;DHT22;11238;48.730;11.566;2022-08-19T05:55:54;20.30;99.90
22145;DHT22;11238;48.730;11.566;2022-08-19T05:58:20;20.40;99.90
22145;DHT22;11238;48.730;11.566;2022-08-19T06:00:46;20.40;99.90
22145;DHT22;11238;48.730;11.566;2022-08-19T06:03:11;20.30;99.90
22145;DHT22;11238;48.730;11.566;2022-08-19T06:05:37;20.30;99.90
22145;DHT22;11238;48.730;11.566;2022-08-19T06:08:03;20.30;99.90
22145;DHT22;11238;48.730;11.566;2022-08-19T06:10:29;20.30;99.90
22145;DHT22;11238;48.730;11.566;2022-08-19T06:12:55;20.50;99.90
22145;DHT22;11238;48.730;11.566;2022-08-19T06:15:21;20.40;99.90
22145;DHT22;11238;48.730;11.566;2022-08-19T06:17:52;20.50;99.90
22145;DHT22;11238;48.730;11.566;2022-08-19T06:20:20;20.60;99.90
22145;DHT22;11238;48.730;11.566;2022-08-19T06:22:47;20.60;99.90
22145;DHT22;11238;48.730;11.566;2022-08-19T06:25:16;20.50;99.90
22145;DHT22;11238;48.730;11.566;2022-08-19T06:27:42;20.40;99.90
22145;DHT22;11238;48.730;11.566;2022-08-19T06:30:09;20.40;99.90
22145;DHT22;11238;48.730;11.566;2022-08-19T06:32:37;20.60;99.90
22145;DHT22;11238;48.730;11.566;2022-08-19T06:35:03;20.60;99.90
22145;DHT22;11238;48.730;11.566;2022-08-19T06:37:30;20.60;99.90
22145;DHT22;11238;48.730;11.566;2022-08-19T06:39:56;20.70;99.90
22145;DHT22;11238;48.730;11.566;2022-08-19T06:42:21;20.70;99.90
22145;DHT22;11238;48.730;11.566;2022-08-19T06:44:47;20.80;99.90
22145;DHT22;11238;48.730;11.566;2022-08-19T06:47:20;20.80;99.90
22145;DHT22;11238;48.730;11.566;2022-08-19T06:49:46;20.80;99.90
22145;DHT22;11238;48.730;11.566;2022-08-19T06:52:13;20.80;99.90
22145;DHT22;11238;48.730;11.566;2022-08-19T06:54:41;20.80;99.90
22145;DHT22;11238;48.730;11.566;2022-08-19T06:57:07;20.80;99.90
22145;DHT22;11238;48.730;11.566;2022-08-19T06:59:39;20.80;99.90
22145;DHT22;11238;48.730;11.566;2022-08-19T07:02:05;20.70;99.90
22145;DHT22;11238;48.730;11.566;2022-08-19T07:04:33;20.70;99.90
22145;DHT22;11238;48.730;11.566;2022-08-19T07:07:03;20.50;99.90
22145;DHT22;11238;48.730;11.566;2022-08-19T07:09:31;20.60;99.90
22145;DHT22;11238;48.730;11.566;2022-08-19T07:11:57;20.60;99.90
22145;DHT22;11238;48.730;11.566;2022-08-19T07:14:26;20.70;99.90
22145;DHT22;11238;48.730;11.566;2022-08-19T07:16:54;20.80;99.90
22145;DHT22;11238;48.730;11.566;2022-08-19T07:19:22;20.80;99.90
22145;DHT22;11238;48.730;11.566;2022-08-19T07:21:49;20.90;99.90
22145;DHT22;11238;48.730;11.566;2022-08-19T07:24:19;21.00;99.90
22145;DHT22;11238;48.730;11.566;2022-08-19T07:26:46;21.00;99.90
22145;DHT22;11238;48.730;11.566;2022-08-19T07:29:12;20.90;99.90
22145;DHT22;11238;48.730;11.566;2022-08-19T07:31:38;21.00;99.90
22145;DHT22;11238;48.730;11.566;2022-08-19T07:34:06;21.10;99.90
22145;DHT22;11238;48.730;11.566;2022-08-19T07:36:35;21.10;99.90
22145;DHT22;11238;48.730;11.566;2022-08-19T07:39:08;21.20;99.90
22145;DHT22;11238;48.730;11.566;2022-08-19T07:41:35;21.20;99.90
22145;DHT22;11238;48.730;11.566;2022-08-19T07:44:03;21.20;99.90
22145;DHT22;11238;48.730;11.566;2022-08-19T07:46:34;21.10;99.90
22145;DHT22;11238;48.730;11.566;2022-08-19T07:49:01;21.10;99.90
22145;DHT22;11238;48.730;11.566;2022-08-19T07:51:28;21.20;99.90
22145;DHT22;11238;48.730;11.566;2022-08-19T07:53:54;21.10;99.90
22145;DHT22;11238;48.730;11.566;2022-08-19T07:56:21;21.10;99.90
22145;DHT22;11238;48.730;11.566;2022-08-19T07:58:49;21.00;99.90
22145;DHT22;11238;48.730;11.566;2022-08-19T08:01:23;21.00;99.90
22145;DHT22;11238;48.730;11.566;2022-08-19T08:03:51;21.10;99.90
22145;DHT22;11238;48.730;11.566;2022-08-19T08:06:36;21.10;99.90
22145;DHT22;11238;48.730;11.566;2022-08-19T08:09:24;21.20;99.90
22145;DHT22;11238;48.730;11.566;2022-08-19T08:12:00;21.20;99.90
22145;DHT22;11238;48.730;11.566;2022-08-19T08:14:30;21.10;99.90
22145;DHT22;11238;48.730;11.566;2022-08-19T08:16:57;21.10;99.90
22145;DHT22;11238;48.730;11.566;2022-08-19T08:19:25;21.20;99.90
22145;DHT22;11238;48.730;11.566;2022-08-19T08:21:52;21.20;99.90
22145;DHT22;11238;48.730;11.566;2022-08-19T08:24:18;21.10;99.90
22145;DHT22;11238;48.730;11.566;2022-08-19T08:26:44;21.10;99.90
22145;DHT22;11238;48.730;11.566;2022-08-19T08:29:11;21.20;99.90
22145;DHT22;11238;48.730;11.566;2022-08-19T08:31:39;20.90;99.90
22145;DHT22;11238;48.730;11.566;2022-08-19T08:34:06;20.90;99.90
22145;DHT22;11238;48.730;11.566;2022-08-19T08:36:32;20.80;99.90
22145;DHT22;11238;48.730;11.566;2022-08-19T08:39:00;20.70;99.90
22145;DHT22;11238;48.730;11.566;2022-08-19T08:41:29;20.70;99.90
22145;DHT22;11238;48.730;11.566;2022-08-19T08:43:57;20.80;99.90
22145;DHT22;11238;48.730;11.566;2022-08-19T08:46:43;20.90;99.90
22145;DHT22;11238;48.730;11.566;2022-08-19T08:49:28;21.00;99.90
22145;DHT22;11238;48.730;11.566;2022-08-19T08:52:18;21.20;99.90
22145;DHT22;11238;48.730;11.566;2022-08-19T08:54:49;21.30;99.90
22145;DHT22;11238;48.730;11.566;2022-08-19T08:57:32;21.30;99.90
22145;DHT22;11238;48.730;11.566;2022-08-19T09:00:02;21.30;99.90
22145;DHT22;11238;48.730;11.566;2022-08-19T09:02:31;21.30;99.90
22145;DHT22;11238;48.730;11.566;2022-08-19T09:04:57;21.30;99.90
22145;DHT22;11238;48.730;11.566;2022-08-19T09:07:52;21.30;99.90
22145;DHT22;11238;48.730;11.566;2022-08-19T09:10:32;21.20;99.90
22145;DHT22;11238;48.730;11.566;2022-08-19T09:13:13;21.20;99.90
22145;DHT22;11238;48.730;11.566;2022-08-19T09:15:58;21.30;99.90
22145;DHT22;11238;48.730;11.566;2022-08-19T09:18:48;21.50;99.90
22145;DHT22;11238;48.730;11.566;2022-08-19T09:21:16;21.40;99.90
22145;DHT22;11238;48.730;11.566;2022-08-19T09:23:41;21.40;99.90
22145;DHT22;11238;48.730;11.566;2022-08-19T09:26:14;21.50;99.90
22145;DHT22;11238;48.730;11.566;2022-08-19T09:28:41;21.60;99.90
22145;DHT22;11238;48.730;11.566;2022-08-19T09:31:15;21.60;99.90
22145;DHT22;11238;48.730;11.566;2022-08-19T09:33:41;21.50;99.90
22145;DHT22;11238;48.730;11.566;2022-08-19T09:36:12;21.50;99.90
22145;DHT22;11238;48.730;11.566;2022-08-19T09:38:39;21.40;99.90
22145;DHT22;11238;48.730;11.566;2022-08-19T09:41:11;21.40;99.90
22145;DHT22;11238;48.730;11.566;2022-08-19T09:43:40;21.30;99.90
22145;DHT22;11238;48.730;11.566;2022-08-19T09:46:08;21.30;99.90
22145;DHT22;11238;48.730;11.566;2022-08-19T09:48:41;21.30;99.90
22145;DHT22;11238;48.730;11.566;2022-08-19T09:51:10;21.30;99.90
22145;DHT22;11238;48.730;11.566;2022-08-19T09:53:38;21.30;99.90
22145;DHT22;11238;48.730;11.566;2022-08-19T09:56:05;21.30;99.90
22145;DHT22;11238;48.730;11.566;2022-08-19T09:58:32;21.40;99.90
22145;DHT22;11238;48.730;11.566;2022-08-19T10:01:00;21.50;99.90
22145;DHT22;11238;48.730;11.566;2022-08-19T10:03:27;21.60;99.90
22145;DHT22;11238;48.730;11.566;2022-08-19T10:05:55;21.70;99.90
22145;DHT22;11238;48.730;11.566;2022-08-19T10:08:26;21.70;99.90
22145;DHT22;11238;48.730;11.566;2022-08-19T10:10:53;21.80;99.90
22145;DHT22;11238;48.730;11.566;2022-08-19T10:13:23;21.90;99.90
22145;DHT22;11238;48.730;11.566;2022-08-19T10:15:52;21.80;99.90
22145;DHT22;11238;48.730;11.566;2022-08-19T10:18:20;21.70;99.90
22145;DHT22;11238;48.730;11.566;2022-08-19T10:20:47;21.80;99.90
22145;DHT22;11238;48.730;11.566;2022-08-19T10:23:13;21.90;99.90
22145;DHT22;11238;48.730;11.566;2022-08-19T10:25:41;21.90;99.90
22145;DHT22;11238;48.730;11.566;2022-08-19T10:28:07;21.90;99.90
22145;DHT22;11238;48.730;11.566;2022-08-19T10:30:35;22.00;99.90
22145;DHT22;11238;48.730;11.566;2022-08-19T10:33:01;22.00;99.90
22145;DHT22;11238;48.730;11.566;2022-08-19T10:35:27;22.00;99.90
22145;DHT22;11238;48.730;11.566;2022-08-19T10:37:55;21.90;99.90
22145;DHT22;11238;48.730;11.566;2022-08-19T10:40:26;21.90;99.90
22145;DHT22;11238;48.730;11.566;2022-08-19T10:42:56;21.90;99.90
22145;DHT22;11238;48.730;11.566;2022-08-19T10:45:22;21.80;99.90
22145;DHT22;11238;48.730;11.566;2022-08-19T10:47:55;21.80;99.90
22145;DHT22;11238;48.730;11.566;2022-08-19T10:50:21;21.70;99.90
22145;DHT22;11238;48.730;11.566;2022-08-19T10:53:07;21.60;99.90
22145;DHT22;11238;48.730;11.566;2022-08-19T10:55:36;21.60;99.90
22145;DHT22;11238;48.730;11.566;2022-08-19T10:58:22;21.70;99.90
22145;DHT22;11238;48.730;11.566;2022-08-19T11:00:55;21.70;99.90
22145;DHT22;11238;48.730;11.566;2022-08-19T11:03:21;21.80;99.90
22145;DHT22;11238;48.730;11.566;2022-08-19T11:05:57;21.70;99.90
22145;DHT22;11238;48.730;11.566;2022-08-19T11:08:24;21.70;99.90
22145;DHT22;11238;48.730;11.566;2022-08-19T11:10:52;21.80;99.90
22145;DHT22;11238;48.730;11.566;2022-08-19T11:13:21;21.90;99.90
22145;DHT22;11238;48.730;11.566;2022-08-19T11:15:47;21.90;99.90
22145;DHT22;11238;48.730;11.566;2022-08-19T11:18:13;22.00;99.90
22145;DHT22;11238;48.730;11.566;2022-08-19T11:20:38;22.00;99.90
22145;DHT22;11238;48.730;11.566;2022-08-19T11:23:04;22.00;99.90
22145;DHT22;11238;48.730;11.566;2022-08-19T11:25:31;21.90;99.90
22145;DHT22;11238;48.730;11.566;2022-08-19T11:27:56;21.90;99.90
22145;DHT22;11238;48.730;11.566;2022-08-19T11:30:22;21.90;99.90
22145;DHT22;11238;48.730;11.566;2022-08-19T11:32:48;21.80;99.90
22145;DHT22;11238;48.730;11.566;2022-08-19T11:35:15;21.70;99.90
22145;DHT22;11238;48.730;11.566;2022-08-19T11:37:41;21.70;99.90
22145;DHT22;11238;48.730;11.566;2022-08-19T11:40:08;21.50;99.90
22145;DHT22;11238;48.730;11.566;2022-08-19T11:42:34;21.60;99.90
22145;DHT22;11238;48.730;11.566;2022-08-19T11:45:18;21.50;99.90
22145;DHT22;11238;48.730;11.566;2022-08-19T11:47:44;21.60;99.90
22145;DHT22;11238;48.730;11.566;2022-08-19T11:50:09;21.50;99.90
22145;DHT22;11238;48.730;11.566;2022-08-19T11:52:35;21.40;99.90
22145;DHT22;11238;48.730;11.566;2022-08-19T11:55:02;21.40;99.90
22145;DHT22;11238;48.730;11.566;2022-08-19T11:57:27;21.20;99.90
22145;DHT22;11238;48.730;11.566;2022-08-19T11:59:53;21.10;99.90
22145;DHT22;11238;48.730;11.566;2022-08-19T12:02:19;21.10;99.90
22145;DHT22;11238;48.730;11.566;2022-08-19T12:04:45;21.00;99.90
22145;DHT22;11238;48.730;11.566;2022-08-19T12:07:11;21.00;99.90
22145;DHT22;11238;48.730;11.566;2022-08-19T12:09:37;21.00;99.90
22145;DHT22;11238;48.730;11.566;2022-08-19T12:12:04;21.10;99.90
22145;DHT22;11238;48.730;11.566;2022-08-19T12:14:30;21.10;99.90
22145;DHT22;11238;48.730;11.566;2022-08-19T12:16:57;21.10;99.90
22145;DHT22;11238;48.730;11.566;2022-08-19T12:19:23;21.10;99.90
22145;DHT22;11238;48.730;11.566;2022-08-19T12:21:51;21.10;99.90
22145;DHT22;11238;48.730;11.566;2022-08-19T12:24:17;21.10;99.90
22145;DHT22;11238;48.730;11.566;2022-08-19T12:26:49;20.90;99.90
22145;DHT22;11238;48.730;11.566;2022-08-19T12:29:15;20.70;99.90
22145;DHT22;11238;48.730;11.566;2022-08-19T12:31:41;20.80;99.90
22145;DHT22;11238;48.730;11.566;2022-08-19T12:34:06;20.80;99.90
22145;DHT22;11238;48.730;11.566;2022-08-19T12:36:33;20.70;99.90
22145;DHT22;11238;48.730;11.566;2022-08-19T12:38:59;20.70;99.90
22145;DHT22;11238;48.730;11.566;2022-08-19T12:41:26;20.80;99.90
22145;DHT22;11238;48.730;11.566;2022-08-19T12:43:52;20.80;99.90
22145;DHT22;11238;48.730;11.566;2022-08-19T12:46:19;20.80;99.90
22145;DHT22;11238;48.730;11.566;2022-08-19T12:48:45;20.70;99.90
22145;DHT22;11238;48.730;11.566;2022-08-19T12:51:16;20.70;99.90
22145;DHT22;11238;48.730;11.566;2022-08-19T12:53:44;20.60;99.90
22145;DHT22;11238;48.730;11.566;2022-08-19T12:56:11;20.60;99.90
22145;DHT22;11238;48.730;11.566;2022-08-19T12:58:38;20.60;99.90
22145;DHT22;11238;48.730;11.566;2022-08-19T13:01:10;20.10;99.90
22145;DHT22;11238;48.730;11.566;2022-08-19T13:03:36;20.00;99.90
22145;DHT22;11238;48.730;11.566;2022-08-19T13:06:02;20.10;99.90
22145;DHT22;11238;48.730;11.566;2022-08-19T13:08:29;20.00;99.90
22145;DHT22;11238;48.730;11.566;2022-08-19T13:10:54;20.10;99.90
22145;DHT22;11238;48.730;11.566;2022-08-19T13:13:21;20.00;99.90
22145;DHT22;11238;48.730;11.566;2022-08-19T13:15:47;20.00;99.90
22145;DHT22;11238;48.730;11.566;2022-08-19T13:18:13;20.20;99.90
22145;DHT22;11238;48.730;11.566;2022-08-19T13:20:40;20.30;99.90
22145;DHT22;11238;48.730;11.566;2022-08-19T13:23:07;20.40;99.90
22145;DHT22;11238;48.730;11.566;2022-08-19T13:25:34;20.60;99.90
22145;DHT22;11238;48.730;11.566;2022-08-19T13:28:00;20.70;99.90
22145;DHT22;11238;48.730;11.566;2022-08-19T13:30:26;20.70;99.90
22145;DHT22;11238;48.730;11.566;2022-08-19T13:33:10;20.80;99.90
22145;DHT22;11238;48.730;11.566;2022-08-19T13:35:40;20.70;99.90
22145;DHT22;11238;48.730;11.566;2022-08-19T13:38:06;20.40;99.90
22145;DHT22;11238;48.730;11.566;2022-08-19T13:40:33;20.10;99.90
22145;DHT22;11238;48.730;11.566;2022-08-19T13:43:00;20.20;99.90
22145;DHT22;11238;48.730;11.566;2022-08-19T13:45:28;20.20;99.90
22145;DHT22;11238;48.730;11.566;2022-08-19T13:47:56;20.20;99.90
22145;DHT22;11238;48.730;11.566;2022-08-19T13:50:28;20.00;99.90
22145;DHT22;11238;48.730;11.566;2022-08-19T13:52:55;20.00;99.90
22145;DHT22;11238;48.730;11.566;2022-08-19T13:55:21;20.20;99.90
22145;DHT22;11238;48.730;11.566;2022-08-19T13:57:54;20.30;99.90
22145;DHT22;11238;48.730;11.566;2022-08-19T14:00:22;20.50;99.90
22145;DHT22;11238;48.730;11.566;2022-08-19T14:02:52;20.60;99.90
22145;DHT22;11238;48.730;11.566;2022-08-19T14:05:18;20.50;99.90
22145;DHT22;11238;48.730;11.566;2022-08-19T14:07:44;20.40;99.90
22145;DHT22;11238;48.730;11.566;2022-08-19T14:10:12;20.50;99.90
22145;DHT22;11238;48.730;11.566;2022-08-19T14:12:38;20.50;99.90
22145;DHT22;11238;48.730;11.566;2022-08-19T14:15:06;20.50;99.90
22145;DHT22;11238;48.730;11.566;2022-08-19T14:17:33;20.50;99.90
22145;DHT22;11238;48.730;11.566;2022-08-19T14:20:02;20.50;99.90
22145;DHT22;11238;48.730;11.566;2022-08-19T14:22:31;20.50;99.90
22145;DHT22;11238;48.730;11.566;2022-08-19T14:24:57;20.50;99.90
22145;DHT22;11238;48.730;11.566;2022-08-19T14:27:23;20.70;99.90
22145;DHT22;11238;48.730;11.566;2022-08-19T14:29:53;20.70;99.90
22145;DHT22;11238;48.730;11.566;2022-08-19T14:32:20;20.80;99.90
22145;DHT22;11238;48.730;11.566;2022-08-19T14:34:50;20.90;99.90
22145;DHT22;11238;48.730;11.566;2022-08-19T14:37:16;21.10;99.90
22145;DHT22;11238;48.730;11.566;2022-08-19T14:39:43;21.10;99.90
22145;DHT22;11238;48.730;11.566;2022-08-19T14:42:11;21.10;99.90
22145;DHT22;11238;48.730;11.566;2022-08-19T14:44:40;21.20;99.90
22145;DHT22;11238;48.730;11.566;2022-08-19T14:47:07;21.40;99.90
22145;DHT22;11238;48.730;11.566;2022-08-19T14:49:33;21.40;99.90
22145;DHT22;11238;48.730;11.566;2022-08-19T14:51:59;21.40;99.90
22145;DHT22;11238;48.730;11.566;2022-08-19T14:54:25;21.50;99.90
22145;DHT22;11238;48.730;11.566;2022-08-19T14:56:52;21.50;99.90
22145;DHT22;11238;48.730;11.566;2022-08-19T14:59:18;21.50;99.90
22145;DHT22;11238;48.730;11.566;2022-08-19T15:01:44;21.60;99.90
22145;DHT22;11238;48.730;11.566;2022-08-19T15:04:10;21.40;99.90
22145;DHT22;11238;48.730;11.566;2022-08-19T15:06:36;21.60;99.90
22145;DHT22;11238;48.730;11.566;2022-08-19T15:09:04;21.60;99.90
22145;DHT22;11238;48.730;11.566;2022-08-19T15:11:31;21.40;99.90
22145;DHT22;11238;48.730;11.566;2022-08-19T15:13:58;21.40;99.90
22145;DHT22;11238;48.730;11.566;2022-08-19T15:16:25;21.50;99.90
22145;DHT22;11238;48.730;11.566;2022-08-19T15:18:54;21.60;99.90
22145;DHT22;11238;48.730;11.566;2022-08-19T15:21:21;21.60;99.90
22145;DHT22;11238;48.730;11.566;2022-08-19T15:23:48;21.60;99.90